createdAt,value
2019-01-06T00:00:45.411Z,96.92
2019-01-06T00:01:45.393Z,97.20
2019-01-06T00:02:45.383Z,97.39
2019-01-06T00:03:45.361Z,97.39
2019-01-06T00:04:45.360Z,97.01
2019-01-06T00:05:45.320Z,97.20
2019-01-06T00:06:45.303Z,97.30
2019-01-06T00:07:45.280Z,97.01
2019-01-06T00:08:45.254Z,97.77
2019-01-06T00:09:45.248Z,97.67
2019-01-06T00:10:45.228Z,97.30
2019-01-06T00:11:45.209Z,97.58
2019-01-06T00:12:45.188Z,97.96
2019-01-06T00:13:45.171Z,97.01
2019-01-06T00:14:45.159Z,97.11
2019-01-06T00:15:45.131Z,97.39
2019-01-06T00:16:45.115Z,97.49
2019-01-06T00:17:45.093Z,97.20
2019-01-06T00:18:45.075Z,96.73
2019-01-06T00:19:45.054Z,97.11
2019-01-06T00:20:45.038Z,97.49
2019-01-06T00:21:45.017Z,97.01
2019-01-06T00:22:45.002Z,97.30
2019-01-06T00:23:44.982Z,97.39
2019-01-06T00:24:44.962Z,97.20
2019-01-06T00:25:44.946Z,97.11
2019-01-06T00:26:44.926Z,97.39
2019-01-06T00:27:44.905Z,97.39
2019-01-06T00:28:44.890Z,97.58
2019-01-06T00:29:44.877Z,97.58
2019-01-06T00:30:44.850Z,97.39
2019-01-06T00:31:44.831Z,98.24
2019-01-06T00:32:44.808Z,97.96
2019-01-06T00:33:44.791Z,97.86
2019-01-06T00:34:44.776Z,97.58
2019-01-06T00:35:44.758Z,98.14
2019-01-06T00:36:44.741Z,98.05
2019-01-06T00:37:44.717Z,98.24
2019-01-06T00:38:44.701Z,98.33
2019-01-06T00:39:44.678Z,98.81
2019-01-06T00:40:44.667Z,98.52
2019-01-06T00:41:44.648Z,98.43
2019-01-06T00:42:44.625Z,98.71
2019-01-06T00:43:44.608Z,98.90
2019-01-06T00:44:44.586Z,98.81
2019-01-06T00:45:44.567Z,99.28
2019-01-06T00:46:44.550Z,99.09
2019-01-06T00:47:44.531Z,99.28
2019-01-06T00:48:44.511Z,99.19
2019-01-06T00:49:44.492Z,99.28
2019-01-06T00:50:44.473Z,99.00
2019-01-06T00:51:44.454Z,99.23
2019-01-06T00:52:44.437Z,99.38
2019-01-06T00:53:44.417Z,99.42
2019-01-06T00:54:44.402Z,98.81
2019-01-06T00:55:44.376Z,98.71
2019-01-06T00:56:44.362Z,98.85
2019-01-06T00:57:44.345Z,98.47
2019-01-06T00:58:44.326Z,98.71
2019-01-06T00:59:44.301Z,98.05
2019-01-06T01:00:44.278Z,98.14
2019-01-06T01:01:44.267Z,97.96
2019-01-06T01:02:44.248Z,97.86
2019-01-06T01:03:44.228Z,97.96
2019-01-06T01:04:44.210Z,97.49
2019-01-06T01:05:44.187Z,97.11
2019-01-06T01:06:44.168Z,97.49
2019-01-06T01:07:44.149Z,96.73
2019-01-06T01:08:44.135Z,97.01
2019-01-06T01:09:44.114Z,97.20
2019-01-06T01:10:44.095Z,96.83
2019-01-06T01:11:44.075Z,96.64
2019-01-06T01:12:44.061Z,96.35
2019-01-06T01:13:44.039Z,96.54
2019-01-06T01:14:44.015Z,96.83
2019-01-06T01:15:43.995Z,96.35
2019-01-06T01:16:43.978Z,96.73
2019-01-06T01:17:44.002Z,96.73
2019-01-06T01:18:43.944Z,96.45
2019-01-06T01:19:43.926Z,96.35
2019-01-06T01:20:43.904Z,96.26
2019-01-06T01:21:43.881Z,96.45
2019-01-06T01:22:43.874Z,96.54
2019-01-06T01:23:43.844Z,96.16
2019-01-06T01:24:43.826Z,96.54
2019-01-06T01:25:43.806Z,96.54
2019-01-06T01:26:48.296Z,96.35
2019-01-06T01:27:43.768Z,96.45
2019-01-06T01:28:43.750Z,96.45
2019-01-06T01:29:43.735Z,95.69
2019-01-06T01:30:43.713Z,96.83
2019-01-06T01:31:43.695Z,96.40
2019-01-06T01:32:43.672Z,96.26
2019-01-06T01:33:43.654Z,96.30
2019-01-06T01:34:43.641Z,96.87
2019-01-06T01:35:43.621Z,97.06
2019-01-06T01:36:43.599Z,96.68
2019-01-06T01:37:43.585Z,97.34
2019-01-06T01:38:43.565Z,97.25
2019-01-06T01:39:43.545Z,97.44
2019-01-06T01:40:43.522Z,97.53
2019-01-06T01:41:43.502Z,97.15
2019-01-06T01:42:43.488Z,97.06
2019-01-06T01:43:43.465Z,97.15
2019-01-06T01:44:43.447Z,97.25
2019-01-06T01:45:43.428Z,97.34
2019-01-06T01:46:43.408Z,97.91
2019-01-06T01:47:43.392Z,97.91
2019-01-06T01:48:43.369Z,97.63
2019-01-06T01:49:43.355Z,97.81
2019-01-06T01:50:43.334Z,98.28
2019-01-06T01:51:43.315Z,98.00
2019-01-06T01:52:43.298Z,97.25
2019-01-06T01:53:43.283Z,97.53
2019-01-06T01:54:43.256Z,97.39
2019-01-06T01:55:43.235Z,97.11
2019-01-06T01:56:43.217Z,97.11
2019-01-06T01:57:43.203Z,97.20
2019-01-06T01:58:43.183Z,96.96
2019-01-06T01:59:43.166Z,96.78
2019-01-06T02:00:43.143Z,96.96
2019-01-06T02:01:43.121Z,97.25
2019-01-06T02:02:43.126Z,96.96
2019-01-06T02:03:43.077Z,97.25
2019-01-06T02:04:43.062Z,97.49
2019-01-06T02:05:43.042Z,97.44
2019-01-06T02:06:43.028Z,97.53
2019-01-06T02:07:43.008Z,97.81
2019-01-06T02:08:42.986Z,98.00
2019-01-06T02:09:42.966Z,98.10
2019-01-06T02:10:42.948Z,97.81
2019-01-06T02:11:42.932Z,97.15
2019-01-06T02:12:42.911Z,97.30
2019-01-06T02:13:42.893Z,97.30
2019-01-06T02:14:42.879Z,97.34
2019-01-06T02:15:42.857Z,96.78
2019-01-06T02:16:42.840Z,96.92
2019-01-06T02:17:42.821Z,96.64
2019-01-06T02:18:42.800Z,96.49
2019-01-06T02:19:42.779Z,96.49
2019-01-06T02:20:42.756Z,96.11
2019-01-06T02:21:42.740Z,96.30
2019-01-06T02:22:42.719Z,96.49
2019-01-06T02:23:42.702Z,96.49
2019-01-06T02:24:42.680Z,96.49
2019-01-06T02:25:42.668Z,96.21
2019-01-06T02:26:42.641Z,96.30
2019-01-06T02:27:42.631Z,96.30
2019-01-06T02:28:42.602Z,96.87
2019-01-06T02:29:42.594Z,97.25
2019-01-06T02:30:42.571Z,96.68
2019-01-06T02:31:42.560Z,96.78
2019-01-06T02:32:42.534Z,96.96
2019-01-06T02:33:42.511Z,96.78
2019-01-06T02:34:42.495Z,96.68
2019-01-06T02:35:42.475Z,96.40
2019-01-06T02:36:42.454Z,96.40
2019-01-06T02:37:42.437Z,96.21
2019-01-06T02:38:42.432Z,96.30
2019-01-06T02:39:42.397Z,96.49
2019-01-06T02:40:42.381Z,96.30
2019-01-06T02:41:42.361Z,96.30
2019-01-06T02:42:42.357Z,96.30
2019-01-06T02:43:42.327Z,96.11
2019-01-06T02:44:42.300Z,96.83
2019-01-06T02:45:42.280Z,96.87
2019-01-06T02:46:42.266Z,97.15
2019-01-06T02:47:42.244Z,96.78
2019-01-06T02:48:42.226Z,96.87
2019-01-06T02:49:42.213Z,96.83
2019-01-06T02:50:42.190Z,96.49
2019-01-06T02:51:42.166Z,96.54
2019-01-06T02:52:42.147Z,96.87
2019-01-06T02:53:42.125Z,96.16
2019-01-06T02:54:42.115Z,96.26
2019-01-06T02:55:42.098Z,96.26
2019-01-06T02:56:42.076Z,96.26
2019-01-06T02:57:42.056Z,96.83
2019-01-06T02:58:42.036Z,96.49
2019-01-06T02:59:42.014Z,96.35
2019-01-06T03:00:42.001Z,96.30
2019-01-06T03:01:42.007Z,96.54
2019-01-06T03:02:41.965Z,96.49
2019-01-06T03:03:41.941Z,96.49
2019-01-06T03:04:41.920Z,96.59
2019-01-06T03:05:41.902Z,96.54
2019-01-06T03:06:41.885Z,96.40
2019-01-06T03:07:41.862Z,96.54
2019-01-06T03:08:41.842Z,96.35
2019-01-06T03:09:41.826Z,96.35
2019-01-06T03:10:41.810Z,96.54
2019-01-06T03:11:41.794Z,97.01
2019-01-06T03:12:41.766Z,96.35
2019-01-06T03:13:41.749Z,96.35
2019-01-06T03:14:41.732Z,96.54
2019-01-06T03:15:41.705Z,96.92
2019-01-06T03:16:41.699Z,96.78
2019-01-06T03:17:41.679Z,97.30
2019-01-06T03:18:41.655Z,96.96
2019-01-06T03:19:41.638Z,96.83
2019-01-06T03:20:41.615Z,96.83
2019-01-06T03:21:41.594Z,97.01
2019-01-06T03:22:41.575Z,97.11
2019-01-06T03:23:41.568Z,97.20
2019-01-06T03:24:41.558Z,97.39
2019-01-06T03:25:41.522Z,96.92
2019-01-06T03:26:41.500Z,96.92
2019-01-06T03:27:41.483Z,96.35
2019-01-06T03:28:41.468Z,96.35
2019-01-06T03:29:41.446Z,96.54
2019-01-06T03:30:41.431Z,96.45
2019-01-06T03:31:41.412Z,96.16
2019-01-06T03:32:41.390Z,96.16
2019-01-06T03:33:41.370Z,96.45
2019-01-06T03:34:41.356Z,96.35
2019-01-06T03:35:41.334Z,96.83
2019-01-06T03:36:41.316Z,97.11
2019-01-06T03:37:41.293Z,97.01
2019-01-06T03:38:41.272Z,96.54
2019-01-06T03:39:41.263Z,97.01
2019-01-06T03:40:41.239Z,97.11
2019-01-06T03:41:41.218Z,97.11
2019-01-06T03:42:41.204Z,97.11
2019-01-06T03:43:41.191Z,97.20
2019-01-06T03:44:41.157Z,97.01
2019-01-06T03:45:41.142Z,96.73
2019-01-06T03:46:41.120Z,96.83
2019-01-06T03:47:41.103Z,97.01
2019-01-06T03:48:41.079Z,97.11
2019-01-06T03:49:41.066Z,97.01
2019-01-06T03:50:41.047Z,96.83
2019-01-06T03:51:41.026Z,96.92
2019-01-06T03:52:41.008Z,96.45
2019-01-06T03:53:40.990Z,96.45
2019-01-06T03:54:40.972Z,96.45
2019-01-06T03:55:40.952Z,96.83
2019-01-06T03:56:40.931Z,97.01
2019-01-06T03:57:40.911Z,96.83
2019-01-06T03:58:40.921Z,97.30
2019-01-06T03:59:40.877Z,96.83
2019-01-06T04:00:40.857Z,96.54
2019-01-06T04:01:40.840Z,96.73
2019-01-06T04:02:40.821Z,97.39
2019-01-06T04:03:40.803Z,97.01
2019-01-06T04:04:40.777Z,97.77
2019-01-06T04:05:40.782Z,97.58
2019-01-06T04:06:40.755Z,97.39
2019-01-06T04:07:40.728Z,97.39
2019-01-06T04:08:40.735Z,97.96
2019-01-06T04:09:40.686Z,97.49
2019-01-06T04:10:40.663Z,98.19
2019-01-06T04:11:40.660Z,98.10
2019-01-06T04:12:40.630Z,98.00
2019-01-06T04:13:40.613Z,98.10
2019-01-06T04:14:40.720Z,97.53
2019-01-06T04:15:40.574Z,98.28
2019-01-06T04:16:40.563Z,98.10
2019-01-06T04:17:40.534Z,98.47
2019-01-06T04:18:40.513Z,98.76
2019-01-06T04:19:40.499Z,98.57
2019-01-06T04:20:40.481Z,98.47
2019-01-06T04:21:40.470Z,98.57
2019-01-06T04:22:40.441Z,98.47
2019-01-06T04:23:40.434Z,98.47
2019-01-06T04:24:40.395Z,98.28
2019-01-06T04:25:40.379Z,98.76
2019-01-06T04:26:40.358Z,97.91
2019-01-06T04:27:40.344Z,97.53
2019-01-06T04:28:40.323Z,97.44
2019-01-06T04:29:40.304Z,97.72
2019-01-06T04:30:40.286Z,97.72
2019-01-06T04:31:40.287Z,97.72
2019-01-06T04:32:40.252Z,97.81
2019-01-06T04:33:40.227Z,98.00
2019-01-06T04:34:40.214Z,97.91
2019-01-06T04:35:40.201Z,97.91
2019-01-06T04:36:40.169Z,97.34
2019-01-06T04:37:40.156Z,97.34
2019-01-06T04:38:40.134Z,97.15
2019-01-06T04:39:40.110Z,97.06
2019-01-06T04:40:40.088Z,97.53
2019-01-06T04:41:40.077Z,97.25
2019-01-06T04:42:40.057Z,97.34
2019-01-06T04:43:40.034Z,97.53
2019-01-06T04:44:40.017Z,97.44
2019-01-06T04:45:40.004Z,97.34
2019-01-06T04:46:39.976Z,96.96
2019-01-06T04:47:39.957Z,96.87
2019-01-06T04:48:39.944Z,97.53
2019-01-06T04:49:39.918Z,97.91
2019-01-06T04:50:39.898Z,98.00
2019-01-06T04:51:39.884Z,97.53
2019-01-06T04:52:39.862Z,98.19
2019-01-06T04:53:39.841Z,98.10
2019-01-06T04:54:39.822Z,98.47
2019-01-06T04:55:39.806Z,98.19
2019-01-06T04:56:39.788Z,98.66
2019-01-06T04:57:39.767Z,98.95
2019-01-06T04:58:39.744Z,99.33
2019-01-06T04:59:39.733Z,99.23
2019-01-06T05:00:39.710Z,99.23
2019-01-06T05:01:39.695Z,99.42
2019-01-06T05:02:39.668Z,99.52
2019-01-06T05:03:39.656Z,99.52
2019-01-06T05:04:39.633Z,99.89
2019-01-06T05:05:39.641Z,99.89
2019-01-06T05:06:39.593Z,99.89
2019-01-06T05:07:39.574Z,99.99
2019-01-06T05:08:39.553Z,99.71
2019-01-06T05:09:39.532Z,99.99
2019-01-06T05:10:39.521Z,99.99
2019-01-06T05:11:39.497Z,99.99
2019-01-06T05:12:39.475Z,99.99
2019-01-06T05:13:39.449Z,99.99
2019-01-06T05:14:39.441Z,99.99
2019-01-06T05:15:39.421Z,99.99
2019-01-06T05:16:39.399Z,99.99
2019-01-06T05:17:39.379Z,99.99
2019-01-06T05:18:39.364Z,99.99
2019-01-06T05:19:39.340Z,99.99
2019-01-06T05:20:39.323Z,99.99
2019-01-06T05:21:39.307Z,99.99
2019-01-06T05:22:39.287Z,99.99
2019-01-06T05:23:39.268Z,99.99
2019-01-06T05:24:39.246Z,99.99
2019-01-06T05:25:39.224Z,99.99
2019-01-06T05:26:39.281Z,99.99
2019-01-06T05:27:39.189Z,99.99
2019-01-06T05:28:39.165Z,99.99
2019-01-06T05:29:39.146Z,99.99
2019-01-06T05:30:39.133Z,99.99
2019-01-06T05:31:39.114Z,99.99
2019-01-06T05:32:39.101Z,99.99
2019-01-06T05:33:39.070Z,99.99
2019-01-06T05:34:39.065Z,99.89
2019-01-06T05:35:39.027Z,99.99
2019-01-06T05:36:39.014Z,99.99
2019-01-06T05:37:38.992Z,99.52
2019-01-06T05:38:38.975Z,99.52
2019-01-06T05:39:38.955Z,99.52
2019-01-06T05:40:38.941Z,99.42
2019-01-06T05:41:38.921Z,99.89
2019-01-06T05:42:38.895Z,99.99
2019-01-06T05:43:38.871Z,99.99
2019-01-06T05:44:38.859Z,99.52
2019-01-06T05:45:38.841Z,99.99
2019-01-06T05:46:38.818Z,99.89
2019-01-06T05:47:38.803Z,99.99
2019-01-06T05:48:38.781Z,99.99
2019-01-06T05:49:38.769Z,99.89
2019-01-06T05:50:38.749Z,99.80
2019-01-06T05:51:38.725Z,99.99
2019-01-06T05:52:38.707Z,99.33
2019-01-06T05:53:38.683Z,99.80
2019-01-06T05:54:38.669Z,99.80
2019-01-06T05:55:38.648Z,99.14
2019-01-06T05:56:38.628Z,99.14
2019-01-06T05:57:38.693Z,99.33
2019-01-06T05:58:38.607Z,99.23
2019-01-06T05:59:38.583Z,98.85
2019-01-06T06:00:38.552Z,98.95
2019-01-06T06:01:38.529Z,99.23
2019-01-06T06:02:38.513Z,99.04
2019-01-06T06:03:38.505Z,99.04
2019-01-06T06:04:38.475Z,99.14
2019-01-06T06:05:38.456Z,99.14
2019-01-06T06:06:38.436Z,99.61
2019-01-06T06:07:38.417Z,99.52
2019-01-06T06:08:38.398Z,99.42
2019-01-06T06:09:38.380Z,99.61
2019-01-06T06:10:38.366Z,99.61
2019-01-06T06:11:38.344Z,99.89
2019-01-06T06:12:38.396Z,99.99
2019-01-06T06:13:38.306Z,99.99
2019-01-06T06:14:38.282Z,99.99
2019-01-06T06:15:38.259Z,99.99
2019-01-06T06:16:38.245Z,99.99
2019-01-06T06:17:38.230Z,99.99
2019-01-06T06:18:38.206Z,99.99
2019-01-06T06:19:38.184Z,99.99
2019-01-06T06:20:38.168Z,99.80
2019-01-06T06:21:38.148Z,99.99
2019-01-06T06:22:38.133Z,99.99
2019-01-06T06:23:38.111Z,99.71
2019-01-06T06:24:38.088Z,99.04
2019-01-06T06:25:38.072Z,99.52
2019-01-06T06:26:38.052Z,99.23
2019-01-06T06:27:38.034Z,99.14
2019-01-06T06:28:38.017Z,99.52
2019-01-06T06:29:37.994Z,99.99
2019-01-06T06:30:37.978Z,99.99
2019-01-06T06:31:37.956Z,99.71
2019-01-06T06:32:37.938Z,99.99
2019-01-06T06:33:37.924Z,99.99
2019-01-06T06:34:37.901Z,99.99
2019-01-06T06:35:37.884Z,99.99
2019-01-06T06:36:37.859Z,99.99
2019-01-06T06:37:37.838Z,99.99
2019-01-06T06:38:37.822Z,99.99
2019-01-06T06:39:37.802Z,99.99
2019-01-06T06:40:37.777Z,99.99
2019-01-06T06:41:37.766Z,99.99
2019-01-06T06:42:37.752Z,99.99
2019-01-06T06:43:37.721Z,99.99
2019-01-06T06:44:37.703Z,99.99
2019-01-06T06:45:37.688Z,99.99
2019-01-06T06:46:37.668Z,99.99
2019-01-06T06:47:37.647Z,99.99
2019-01-06T06:48:37.632Z,99.99
2019-01-06T06:49:37.627Z,99.99
2019-01-06T06:50:37.592Z,99.99
2019-01-06T06:51:37.568Z,99.99
2019-01-06T06:52:37.553Z,99.99
2019-01-06T06:53:37.612Z,99.99
2019-01-06T06:54:37.514Z,99.99
2019-01-06T06:55:37.495Z,99.99
2019-01-06T06:56:37.469Z,99.99
2019-01-06T06:57:37.453Z,99.99
2019-01-06T06:58:37.436Z,99.99
2019-01-06T06:59:37.418Z,99.99
2019-01-06T07:00:37.392Z,99.99
2019-01-06T07:01:37.379Z,99.99
2019-01-06T07:02:37.350Z,99.99
2019-01-06T07:03:37.335Z,99.99
2019-01-06T07:04:37.314Z,99.99
2019-01-06T07:05:37.294Z,99.99
2019-01-06T07:06:37.280Z,99.99
2019-01-06T07:07:37.260Z,99.99
2019-01-06T07:08:37.236Z,99.99
2019-01-06T07:09:37.220Z,99.99
2019-01-06T07:10:37.202Z,99.99
2019-01-06T07:11:37.178Z,99.99
2019-01-06T07:12:37.163Z,99.99
2019-01-06T07:13:37.141Z,99.99
2019-01-06T07:14:37.124Z,99.99
2019-01-06T07:15:37.104Z,99.99
2019-01-06T07:16:37.084Z,99.99
2019-01-06T07:17:37.064Z,99.99
2019-01-06T07:18:37.050Z,99.99
2019-01-06T07:19:37.020Z,99.99
2019-01-06T07:20:37.002Z,99.99
2019-01-06T07:21:36.984Z,99.99
2019-01-06T07:22:36.969Z,99.99
2019-01-06T07:23:36.949Z,99.99
2019-01-06T07:24:36.927Z,99.99
2019-01-06T07:25:36.908Z,99.99
2019-01-06T07:26:36.889Z,99.99
2019-01-06T07:27:36.869Z,99.99
2019-01-06T07:28:36.849Z,99.99
2019-01-06T07:29:36.834Z,99.99
2019-01-06T07:30:36.811Z,99.99
2019-01-06T07:31:36.788Z,99.99
2019-01-06T07:32:36.773Z,99.99
2019-01-06T07:33:36.760Z,99.99
2019-01-06T07:34:36.759Z,99.99
2019-01-06T07:35:36.712Z,99.99
2019-01-06T07:36:36.689Z,99.99
2019-01-06T07:37:36.671Z,99.99
2019-01-06T07:38:36.647Z,99.99
2019-01-06T07:39:36.639Z,99.99
2019-01-06T07:40:36.617Z,99.99
2019-01-06T07:41:36.593Z,99.99
2019-01-06T07:42:36.571Z,99.99
2019-01-06T07:43:36.561Z,99.99
2019-01-06T07:44:36.530Z,99.99
2019-01-06T07:45:36.517Z,99.99
2019-01-06T07:46:36.501Z,99.99
2019-01-06T07:47:36.473Z,99.99
2019-01-06T07:48:51.230Z,99.99
2019-01-06T07:49:36.442Z,99.99
2019-01-06T07:50:36.420Z,99.99
2019-01-06T07:51:37.569Z,99.99
2019-01-06T07:52:36.374Z,99.99
2019-01-06T07:53:36.363Z,99.99
2019-01-06T07:54:36.342Z,99.99
2019-01-06T07:55:36.323Z,99.99
2019-01-06T07:56:36.305Z,99.99
2019-01-06T07:57:36.281Z,99.99
2019-01-06T07:58:36.266Z,99.99
2019-01-06T07:59:36.243Z,99.99
2019-01-06T08:00:36.224Z,99.99
2019-01-06T08:01:36.210Z,99.99
2019-01-06T08:02:36.185Z,99.99
2019-01-06T08:03:36.168Z,99.99
2019-01-06T08:04:36.146Z,99.99
2019-01-06T08:05:36.126Z,99.99
2019-01-06T08:06:36.112Z,99.99
2019-01-06T08:07:36.088Z,99.99
2019-01-06T08:08:36.066Z,99.99
2019-01-06T08:09:36.048Z,99.99
2019-01-06T08:10:36.036Z,99.99
2019-01-06T08:11:36.013Z,99.99
2019-01-06T08:12:35.991Z,99.99
2019-01-06T08:13:35.977Z,99.99
2019-01-06T08:14:35.960Z,99.99
2019-01-06T08:15:35.931Z,99.99
2019-01-06T08:16:35.912Z,99.99
2019-01-06T08:17:35.902Z,99.99
2019-01-06T08:18:35.877Z,99.99
2019-01-06T08:19:35.863Z,99.99
2019-01-06T08:20:35.845Z,99.99
2019-01-06T08:21:35.819Z,99.99
2019-01-06T08:22:35.799Z,99.99
2019-01-06T08:23:35.783Z,99.99
2019-01-06T08:24:35.767Z,99.99
2019-01-06T08:25:35.747Z,99.99
2019-01-06T08:26:35.727Z,99.95
2019-01-06T08:27:35.700Z,99.99
2019-01-06T08:28:35.688Z,99.66
2019-01-06T08:29:35.678Z,99.57
2019-01-06T08:30:35.648Z,99.85
2019-01-06T08:31:35.638Z,99.66
2019-01-06T08:32:35.612Z,99.66
2019-01-06T08:33:35.597Z,99.28
2019-01-06T08:34:35.572Z,99.57
2019-01-06T08:35:35.559Z,99.09
2019-01-06T08:36:35.532Z,99.28
2019-01-06T08:37:35.515Z,99.19
2019-01-06T08:38:35.492Z,99.47
2019-01-06T08:39:35.478Z,99.00
2019-01-06T08:40:35.463Z,98.71
2019-01-06T08:41:35.444Z,98.62
2019-01-06T08:42:35.422Z,98.77
2019-01-06T08:43:35.400Z,98.14
2019-01-06T08:44:35.386Z,97.96
2019-01-06T08:45:35.366Z,98.24
2019-01-06T08:46:35.350Z,98.43
2019-01-06T08:47:35.332Z,98.52
2019-01-06T08:48:35.310Z,98.77
2019-01-06T08:49:35.296Z,98.52
2019-01-06T08:50:35.270Z,98.58
2019-01-06T08:51:35.258Z,98.58
2019-01-06T08:52:35.231Z,98.33
2019-01-06T08:53:35.216Z,98.71
2019-01-06T08:54:35.198Z,98.33
2019-01-06T08:55:35.176Z,98.81
2019-01-06T08:56:35.161Z,99.38
2019-01-06T08:57:35.142Z,99.85
2019-01-06T08:58:35.118Z,99.66
2019-01-06T08:59:35.104Z,99.99
2019-01-06T09:00:35.085Z,99.85
2019-01-06T09:01:35.064Z,99.99
2019-01-06T09:02:35.050Z,99.99
2019-01-06T09:03:35.206Z,99.95
2019-01-06T09:04:35.011Z,99.76
2019-01-06T09:05:34.991Z,99.95
2019-01-06T09:06:34.974Z,99.99
2019-01-06T09:07:34.954Z,99.99
2019-01-06T09:08:34.934Z,99.99
2019-01-06T09:09:34.912Z,99.99
2019-01-06T09:10:34.898Z,99.99
2019-01-06T09:11:34.882Z,99.99
2019-01-06T09:12:42.791Z,99.99
2019-01-06T09:13:34.842Z,99.71
2019-01-06T09:14:34.820Z,99.71
2019-01-06T09:15:34.803Z,99.90
2019-01-06T09:16:34.784Z,99.90
2019-01-06T09:17:34.769Z,99.62
2019-01-06T09:18:34.747Z,99.43
2019-01-06T09:19:34.730Z,99.52
2019-01-06T09:20:34.708Z,98.39
2019-01-06T09:21:34.685Z,98.77
2019-01-06T09:22:34.672Z,98.77
2019-01-06T09:23:34.654Z,98.29
2019-01-06T09:24:34.633Z,97.91
2019-01-06T09:25:40.860Z,97.72
2019-01-06T09:26:34.613Z,98.01
2019-01-06T09:27:34.580Z,98.29
2019-01-06T09:28:34.563Z,98.10
2019-01-06T09:29:34.551Z,98.01
2019-01-06T09:30:34.526Z,98.20
2019-01-06T09:31:34.502Z,98.01
2019-01-06T09:32:34.481Z,98.01
2019-01-06T09:33:34.470Z,98.39
2019-01-06T09:34:34.448Z,98.58
2019-01-06T09:35:34.432Z,98.58
2019-01-06T09:36:34.408Z,98.86
2019-01-06T09:37:34.392Z,98.58
2019-01-06T09:38:34.375Z,98.77
2019-01-06T09:39:34.359Z,98.58
2019-01-06T09:40:34.342Z,98.77
2019-01-06T09:41:34.318Z,98.29
2019-01-06T09:42:34.306Z,97.63
2019-01-06T09:43:34.284Z,97.82
2019-01-06T09:44:34.262Z,97.34
2019-01-06T09:45:34.247Z,97.63
2019-01-06T09:46:34.228Z,97.82
2019-01-06T09:47:34.221Z,97.53
2019-01-06T09:48:34.186Z,97.25
2019-01-06T09:49:34.174Z,97.16
2019-01-06T09:50:34.151Z,96.88
2019-01-06T09:51:34.138Z,97.06
2019-01-06T09:52:34.120Z,96.59
2019-01-06T09:53:34.115Z,97.16
2019-01-06T09:54:34.087Z,96.88
2019-01-06T09:55:34.071Z,96.64
2019-01-06T09:56:34.045Z,96.45
2019-01-06T09:57:34.025Z,95.78
2019-01-06T09:58:34.011Z,95.03
2019-01-06T09:59:33.991Z,95.03
2019-01-06T10:00:33.997Z,95.26
2019-01-06T10:01:33.955Z,94.79
2019-01-06T10:02:33.948Z,95.17
2019-01-06T10:03:33.923Z,94.93
2019-01-06T10:04:35.094Z,94.74
2019-01-06T10:05:33.882Z,95.21
2019-01-06T10:06:33.866Z,95.21
2019-01-06T10:07:33.842Z,95.03
2019-01-06T10:08:33.841Z,95.03
2019-01-06T10:09:33.807Z,95.40
2019-01-06T10:10:33.799Z,94.56
2019-01-06T10:11:33.770Z,94.65
2019-01-06T10:12:33.752Z,94.84
2019-01-06T10:13:33.733Z,94.37
2019-01-06T10:14:33.726Z,94.27
2019-01-06T10:15:33.703Z,93.99
2019-01-06T10:16:33.690Z,94.27
2019-01-06T10:17:33.666Z,94.18
2019-01-06T10:18:33.651Z,93.32
2019-01-06T10:19:33.632Z,93.51
2019-01-06T10:20:33.614Z,93.32
2019-01-06T10:21:33.596Z,93.51
2019-01-06T10:22:33.577Z,94.65
2019-01-06T10:23:33.560Z,94.37
2019-01-06T10:24:33.545Z,94.37
2019-01-06T10:25:33.527Z,93.80
2019-01-06T10:26:33.505Z,94.37
2019-01-06T10:27:33.490Z,94.18
2019-01-06T10:28:33.468Z,94.37
2019-01-06T10:29:33.450Z,94.27
2019-01-06T10:30:33.430Z,94.46
2019-01-06T10:31:33.414Z,94.18
2019-01-06T10:32:33.390Z,94.46
2019-01-06T10:33:33.407Z,93.61
2019-01-06T10:34:33.358Z,93.61
2019-01-06T10:35:33.345Z,93.23
2019-01-06T10:36:33.328Z,93.23
2019-01-06T10:37:33.310Z,93.04
2019-01-06T10:38:33.288Z,93.13
2019-01-06T10:39:34.943Z,93.13
2019-01-06T10:40:33.252Z,93.04
2019-01-06T10:41:33.236Z,92.57
2019-01-06T10:42:33.216Z,93.23
2019-01-06T10:43:33.199Z,93.23
2019-01-06T10:44:33.187Z,92.85
2019-01-06T10:45:33.171Z,92.38
2019-01-06T10:46:33.143Z,92.57
2019-01-06T10:47:33.126Z,92.85
2019-01-06T10:48:33.117Z,92.66
2019-01-06T10:49:33.101Z,92.10
2019-01-06T10:50:33.075Z,92.19
2019-01-06T10:51:33.059Z,92.00
2019-01-06T10:52:33.038Z,91.34
2019-01-06T10:53:33.021Z,91.62
2019-01-06T10:54:33.004Z,91.43
2019-01-06T10:55:32.986Z,91.53
2019-01-06T10:56:33.010Z,91.72
2019-01-06T10:57:32.957Z,92.00
2019-01-06T10:58:32.936Z,91.72
2019-01-06T10:59:32.923Z,91.91
2019-01-06T11:00:32.899Z,91.91
2019-01-06T11:01:32.880Z,92.00
2019-01-06T11:02:32.868Z,91.91
2019-01-06T11:03:32.841Z,92.19
2019-01-06T11:04:32.825Z,91.81
2019-01-06T11:05:32.807Z,91.53
2019-01-06T11:06:32.796Z,91.81
2019-01-06T11:07:32.772Z,92.38
2019-01-06T11:08:32.757Z,92.29
2019-01-06T11:09:32.742Z,92.94
2019-01-06T11:10:32.718Z,92.76
2019-01-06T11:11:32.705Z,93.04
2019-01-06T11:12:32.683Z,93.04
2019-01-06T11:13:32.675Z,92.57
2019-01-06T11:14:32.652Z,92.57
2019-01-06T11:15:32.634Z,92.47
2019-01-06T11:16:32.618Z,92.76
2019-01-06T11:17:32.598Z,92.76
2019-01-06T11:18:32.589Z,92.80
2019-01-06T11:19:32.561Z,92.38
2019-01-06T11:20:32.550Z,92.24
2019-01-06T11:21:32.523Z,92.33
2019-01-06T11:22:32.511Z,92.33
2019-01-06T11:23:32.496Z,92.14
2019-01-06T11:24:32.471Z,91.48
2019-01-06T11:25:32.458Z,91.29
2019-01-06T11:26:32.447Z,90.81
2019-01-06T11:27:32.491Z,91.10
2019-01-06T11:28:32.403Z,91.24
2019-01-06T11:29:32.385Z,91.67
2019-01-06T11:30:32.371Z,91.57
2019-01-06T11:31:32.354Z,91.24
2019-01-06T11:32:32.329Z,91.29
2019-01-06T11:33:32.320Z,91.24
2019-01-06T11:34:32.295Z,91.29
2019-01-06T11:35:32.287Z,91.10
2019-01-06T11:36:32.266Z,91.76
2019-01-06T11:37:32.245Z,91.29
2019-01-06T11:38:32.232Z,91.34
2019-01-06T11:39:32.212Z,91.48
2019-01-06T11:40:32.196Z,91.72
2019-01-06T11:41:32.173Z,91.15
2019-01-06T11:42:32.157Z,91.29
2019-01-06T11:43:32.140Z,91.29
2019-01-06T11:44:32.123Z,90.81
2019-01-06T11:45:32.111Z,90.91
2019-01-06T11:46:32.094Z,90.91
2019-01-06T11:47:32.084Z,90.72
2019-01-06T11:48:32.055Z,90.63
2019-01-06T11:49:32.037Z,90.91
2019-01-06T11:50:32.034Z,90.53
2019-01-06T11:51:31.999Z,90.91
2019-01-06T11:52:31.988Z,91.10
2019-01-06T11:53:31.971Z,90.81
2019-01-06T11:54:31.952Z,90.72
2019-01-06T11:55:31.935Z,90.91
2019-01-06T11:56:31.915Z,91.10
2019-01-06T11:57:31.896Z,90.53
2019-01-06T11:58:31.879Z,90.53
2019-01-06T11:59:31.863Z,90.63
2019-01-06T12:00:31.843Z,90.63
2019-01-06T12:01:31.830Z,90.34
2019-01-06T12:02:38.766Z,90.72
2019-01-06T12:03:31.785Z,90.15
2019-01-06T12:04:31.781Z,90.63
2019-01-06T12:05:31.760Z,89.87
2019-01-06T12:06:31.739Z,89.68
2019-01-06T12:07:31.724Z,90.44
2019-01-06T12:08:31.712Z,90.44
2019-01-06T12:09:31.692Z,90.53
2019-01-06T12:10:31.675Z,91.10
2019-01-06T12:11:31.660Z,90.15
2019-01-06T12:12:31.644Z,90.25
2019-01-06T12:13:31.625Z,90.34
2019-01-06T12:14:31.603Z,90.34
2019-01-06T12:15:31.585Z,90.53
2019-01-06T12:16:31.577Z,90.53
2019-01-06T12:17:31.555Z,90.44
2019-01-06T12:18:31.534Z,90.44
2019-01-06T12:19:33.870Z,89.87
2019-01-06T12:20:31.503Z,90.06
2019-01-06T12:21:31.483Z,89.58
2019-01-06T12:22:31.465Z,89.30
2019-01-06T12:23:31.450Z,89.01
2019-01-06T12:24:31.425Z,88.64
2019-01-06T12:25:31.416Z,88.73
2019-01-06T12:26:31.397Z,88.54
2019-01-06T12:27:31.382Z,89.06
2019-01-06T12:28:31.362Z,88.96
2019-01-06T12:29:31.349Z,89.01
2019-01-06T12:30:31.329Z,88.30
2019-01-06T12:31:31.312Z,88.40
2019-01-06T12:32:31.298Z,88.11
2019-01-06T12:33:31.278Z,88.26
2019-01-06T12:34:31.262Z,88.30
2019-01-06T12:35:31.243Z,88.64
2019-01-06T12:36:31.224Z,88.45
2019-01-06T12:37:31.207Z,88.73
2019-01-06T12:38:31.191Z,88.87
2019-01-06T12:39:31.173Z,88.96
2019-01-06T12:40:31.152Z,88.82
2019-01-06T12:41:31.144Z,88.82
2019-01-06T12:42:31.113Z,88.82
2019-01-06T12:43:31.101Z,88.92
2019-01-06T12:44:31.089Z,88.73
2019-01-06T12:45:31.072Z,88.73
2019-01-06T12:46:31.057Z,88.64
2019-01-06T12:47:31.042Z,88.54
2019-01-06T12:48:31.024Z,88.87
2019-01-06T12:49:31.004Z,88.96
2019-01-06T12:50:30.988Z,89.01
2019-01-06T12:51:30.967Z,88.82
2019-01-06T12:52:30.947Z,88.73